Time;durP1;ratioP1;P1;durP2;ratioP2;P2;SDS_P1;SDS_P2;PMS_P1;PMS_P2;Temp;Humidity;BMP_temperature;BMP_pressure;BME280_temperature;BME280_humidity;BME280_pressure;Samples;Min_cycle;Max_cycle;Signal;HPM_P1;HPM_P2
2023/05/18 00:02:00;;;;;;;11.43;1.65;;;7.00;99.90;;;;;;5065786;28;20083;-82
2023/05/18 00:04:27;;;;;;;9.65;1.52;;;6.90;99.90;;;;;;5050259;28;20040;-82
2023/05/18 00:06:55;;;;;;;10.05;2.10;;;6.90;99.90;;;;;;5032128;28;20044;-83
2023/05/18 00:09:29;;;;;;;7.72;1.33;;;6.80;99.90;;;;;;5067884;28;20495;-84
2023/05/18 00:11:56;;;;;;;8.93;2.22;;;6.90;99.90;;;;;;5068085;28;20032;-83
2023/05/18 00:14:22;;;;;;;7.63;1.13;;;6.80;99.90;;;;;;5070401;28;20047;-82
2023/05/18 00:16:48;;;;;;;6.25;1.20;;;6.60;99.90;;;;;;5057752;28;20044;-83
2023/05/18 00:19:14;;;;;;;5.90;1.13;;;6.70;99.90;;;;;;5068538;28;20036;-83
2023/05/18 00:21:45;;;;;;;6.82;1.27;;;6.60;99.90;;;;;;5051940;28;20036;-83
2023/05/18 00:24:11;;;;;;;10.48;1.55;;;6.60;99.90;;;;;;5069642;28;20033;-83
2023/05/18 00:26:41;;;;;;;6.90;1.58;;;6.50;99.90;;;;;;5050697;28;20063;-82
2023/05/18 00:29:07;;;;;;;13.05;2.67;;;6.50;99.90;;;;;;5047736;28;20048;-83
2023/05/18 00:31:38;;;;;;;9.10;1.20;;;6.50;99.90;;;;;;5046858;28;20710;-83
2023/05/18 00:34:04;;;;;;;9.18;1.20;;;6.40;99.90;;;;;;5049023;28;20071;-82
2023/05/18 00:36:30;;;;;;;6.07;1.63;;;6.40;99.90;;;;;;5049489;28;20185;-82
2023/05/18 00:39:00;;;;;;;11.02;1.30;;;6.40;99.90;;;;;;5050563;28;20400;-83
2023/05/18 00:41:26;;;;;;;4.45;1.05;;;6.40;99.90;;;;;;5048431;28;20036;-82
2023/05/18 00:43:52;;;;;;;5.40;1.20;;;6.40;99.90;;;;;;5048244;28;20033;-82
2023/05/18 00:46:19;;;;;;;6.20;1.45;;;6.30;99.90;;;;;;5064685;28;21025;-82
2023/05/18 00:48:45;;;;;;;8.40;1.38;;;6.30;99.90;;;;;;5046082;28;20041;-82
2023/05/18 00:51:11;;;;;;;4.90;1.10;;;6.20;99.90;;;;;;5049765;28;20095;-84
2023/05/18 00:53:36;;;;;;;5.22;1.17;;;6.30;99.90;;;;;;5065259;28;20044;-82
2023/05/18 00:56:03;;;;;;;6.85;1.63;;;6.30;99.90;;;;;;5066647;28;20040;-83
2023/05/18 00:58:30;;;;;;;4.00;1.05;;;6.30;99.90;;;;;;5048867;28;20450;-83
2023/05/18 01:00:55;;;;;;;7.47;1.25;;;6.40;99.90;;;;;;5047566;28;20098;-83
2023/05/18 01:03:21;;;;;;;6.97;1.85;;;6.40;99.90;;;;;;5068459;28;20150;-83
2023/05/18 01:05:54;;;;;;;5.75;1.67;;;6.40;99.90;;;;;;5068807;28;20060;-82
2023/05/18 01:08:21;;;;;;;5.20;1.52;;;6.50;99.90;;;;;;5070314;28;20043;-83
2023/05/18 01:10:52;;;;;;;6.53;1.27;;;6.40;99.90;;;;;;5049337;28;20044;-82
2023/05/18 01:13:34;;;;;;;6.70;1.45;;;6.40;99.90;;;;;;5047416;28;20090;-84
2023/05/18 01:16:05;;;;;;;8.85;1.63;;;6.50;99.90;;;;;;5057000;28;20130;-82
2023/05/18 01:18:37;;;;;;;4.22;1.20;;;6.50;99.90;;;;;;5063744;28;20079;-83
2023/05/18 01:21:18;;;;;;;5.53;1.40;;;6.50;99.90;;;;;;5065712;28;20032;-83
2023/05/18 01:24:05;;;;;;;10.35;1.92;;;6.50;99.90;;;;;;5049316;28;20120;-83
2023/05/18 01:26:36;;;;;;;7.20;1.83;;;6.50;99.90;;;;;;5047238;28;20037;-82
2023/05/18 01:29:05;;;;;;;8.32;1.42;;;6.50;99.90;;;;;;5048518;28;20036;-83
2023/05/18 01:31:31;;;;;;;7.25;1.80;;;6.50;99.90;;;;;;5064973;28;20375;-82
2023/05/18 01:33:57;;;;;;;7.95;1.75;;;6.50;99.90;;;;;;5062137;28;20047;-83
2023/05/18 01:36:22;;;;;;;6.18;1.52;;;6.50;99.90;;;;;;5048249;28;20040;-83
2023/05/18 01:38:49;;;;;;;8.82;1.52;;;6.60;99.90;;;;;;5065816;28;20040;-83
2023/05/18 01:41:22;;;;;;;5.78;1.50;;;6.60;99.90;;;;;;5046760;28;20052;-83
2023/05/18 01:43:51;;;;;;;9.88;1.60;;;6.60;99.90;;;;;;5035421;28;20068;-83
2023/05/18 01:46:35;;;;;;;9.25;1.40;;;6.60;99.90;;;;;;5046143;28;20043;-83
2023/05/18 01:49:24;;;;;;;7.72;1.60;;;6.60;99.90;;;;;;5029030;28;20124;-84
2023/05/18 01:51:52;;;;;;;9.45;2.90;;;6.70;99.90;;;;;;5050915;28;20037;-82
2023/05/18 01:54:19;;;;;;;9.75;1.80;;;6.70;99.90;;;;;;5067776;28;20526;-84
2023/05/18 01:56:47;;;;;;;5.88;1.85;;;6.70;99.90;;;;;;5048746;28;20582;-83
2023/05/18 01:59:14;;;;;;;8.15;1.52;;;6.70;99.90;;;;;;5064656;28;20040;-82
2023/05/18 02:01:40;;;;;;;10.60;1.52;;;6.70;99.90;;;;;;5031716;28;20049;-83
2023/05/18 02:04:09;;;;;;;11.02;1.67;;;6.70;99.90;;;;;;5046671;28;20049;-83
2023/05/18 02:06:35;;;;;;;7.68;1.85;;;6.80;99.90;;;;;;5063660;28;20052;-83
2023/05/18 02:09:04;;;;;;;7.90;2.38;;;6.80;99.90;;;;;;5048393;28;20048;-83
2023/05/18 02:11:30;;;;;;;8.77;1.80;;;6.80;99.90;;;;;;5048834;28;20558;-83
2023/05/18 02:13:56;;;;;;;8.88;2.65;;;6.80;99.90;;;;;;5046676;28;20060;-83
2023/05/18 02:16:21;;;;;;;7.68;1.85;;;6.80;99.90;;;;;;5049967;28;20581;-83
2023/05/18 02:18:47;;;;;;;8.48;1.83;;;6.80;99.90;;;;;;5049312;28;20040;-82
2023/05/18 02:21:13;;;;;;;8.13;2.55;;;6.80;99.90;;;;;;5048753;28;20033;-82
2023/05/18 02:23:40;;;;;;;12.10;2.63;;;6.90;99.90;;;;;;5066516;28;20036;-83
2023/05/18 02:26:05;;;;;;;8.90;1.92;;;6.90;99.90;;;;;;5068107;28;20052;-83
2023/05/18 02:28:31;;;;;;;7.85;1.88;;;6.90;99.90;;;;;;5049852;28;20036;-83
2023/05/18 02:31:08;;;;;;;5.88;1.30;;;7.00;99.90;;;;;;5054716;28;20134;-82
2023/05/18 02:33:38;;;;;;;6.70;1.98;;;7.00;99.90;;;;;;5072773;28;20063;-82
2023/05/18 02:36:11;;;;;;;6.70;1.83;;;7.00;99.90;;;;;;5071616;28;20115;-83
2023/05/18 02:38:39;;;;;;;8.43;1.75;;;7.00;99.90;;;;;;5074296;28;20044;-83
2023/05/18 02:41:06;;;;;;;4.45;1.70;;;7.10;99.90;;;;;;5071343;28;20045;-82
2023/05/18 02:43:32;;;;;;;7.85;1.83;;;7.10;99.90;;;;;;5045821;28;20116;-82
2023/05/18 02:45:57;;;;;;;7.90;1.35;;;7.00;99.90;;;;;;5054973;28;20459;-83
2023/05/18 02:48:23;;;;;;;7.88;2.53;;;7.00;99.90;;;;;;5055583;28;20074;-83
2023/05/18 02:50:49;;;;;;;8.90;1.92;;;7.10;99.90;;;;;;5055785;28;20037;-82
2023/05/18 02:53:15;;;;;;;9.40;2.00;;;7.00;99.90;;;;;;5058970;28;20040;-83
2023/05/18 02:55:40;;;;;;;7.72;1.90;;;7.10;99.90;;;;;;5054623;28;20032;-82
2023/05/18 02:58:06;;;;;;;7.20;1.60;;;7.10;99.90;;;;;;5058164;28;20036;-83
2023/05/18 03:00:32;;;;;;;5.07;2.10;;;7.00;99.90;;;;;;5057535;28;20033;-82
2023/05/18 03:02:59;;;;;;;9.93;1.60;;;7.10;99.90;;;;;;5068518;28;20506;-83
2023/05/18 03:05:25;;;;;;;5.72;1.65;;;7.10;99.90;;;;;;5053335;28;20176;-82
2023/05/18 03:07:51;;;;;;;7.55;1.90;;;7.20;99.90;;;;;;5035976;28;20037;-83
2023/05/18 03:10:20;;;;;;;4.80;2.28;;;7.20;99.90;;;;;;5068673;28;20054;-83
2023/05/18 03:12:47;;;;;;;6.03;2.10;;;7.20;99.90;;;;;;5057811;28;20062;-83
2023/05/18 03:15:15;;;;;;;5.22;1.20;;;7.10;99.90;;;;;;5055816;28;20036;-82
2023/05/18 03:17:41;;;;;;;7.00;1.50;;;7.20;99.90;;;;;;5037438;28;20127;-82
2023/05/18 03:20:10;;;;;;;9.50;1.48;;;7.20;99.90;;;;;;5074049;28;20037;-82
2023/05/18 03:22:36;;;;;;;10.07;2.38;;;7.20;99.90;;;;;;5051556;28;20055;-83
2023/05/18 03:25:06;;;;;;;10.10;1.73;;;7.20;99.90;;;;;;5053472;28;20124;-82
2023/05/18 03:27:32;;;;;;;8.98;1.55;;;7.20;99.90;;;;;;5058917;28;20036;-82
2023/05/18 03:29:58;;;;;;;5.32;1.35;;;7.20;99.90;;;;;;5073668;28;20040;-83
2023/05/18 03:32:24;;;;;;;8.80;2.05;;;7.20;99.90;;;;;;5067623;28;20033;-82
2023/05/18 03:34:53;;;;;;;9.40;1.95;;;7.20;99.90;;;;;;5073779;28;20440;-83
2023/05/18 03:37:19;;;;;;;11.60;2.33;;;7.20;99.90;;;;;;5067241;28;20055;-83
2023/05/18 03:39:45;;;;;;;8.77;2.03;;;7.20;99.90;;;;;;5068995;28;20032;-82
2023/05/18 03:42:10;;;;;;;7.10;1.90;;;7.10;99.90;;;;;;5051971;28;20044;-82
2023/05/18 03:44:36;;;;;;;5.15;1.42;;;7.20;99.90;;;;;;5067976;28;20037;-82
2023/05/18 03:47:02;;;;;;;4.50;1.90;;;7.20;99.90;;;;;;5071267;28;20037;-83
2023/05/18 03:49:29;;;;;;;7.32;1.60;;;7.10;99.90;;;;;;5057277;28;20044;-82
2023/05/18 03:51:55;;;;;;;9.35;1.85;;;7.10;99.90;;;;;;5051658;28;20036;-82
2023/05/18 03:54:21;;;;;;;4.80;1.35;;;7.20;99.90;;;;;;5065487;28;20402;-82
2023/05/18 03:56:47;;;;;;;3.72;1.38;;;7.20;99.90;;;;;;5049105;28;20045;-82
2023/05/18 03:59:13;;;;;;;8.65;1.27;;;7.20;99.90;;;;;;5067659;28;20043;-82
2023/05/18 04:01:41;;;;;;;6.68;1.30;;;7.30;99.90;;;;;;5049004;28;20048;-81
2023/05/18 04:04:07;;;;;;;8.40;1.80;;;7.30;99.90;;;;;;5047889;28;20040;-82
2023/05/18 04:06:34;;;;;;;11.30;2.08;;;7.40;99.90;;;;;;5045849;28;20107;-82
2023/05/18 04:09:03;;;;;;;13.85;2.00;;;7.30;99.90;;;;;;5051464;28;20041;-82
2023/05/18 04:11:29;;;;;;;7.40;1.23;;;7.40;99.90;;;;;;5048030;28;20025;-82
2023/05/18 04:13:56;;;;;;;9.85;1.42;;;7.40;99.90;;;;;;5046224;28;20483;-82
2023/05/18 04:16:22;;;;;;;6.55;2.20;;;7.40;99.90;;;;;;5049116;28;20040;-82
2023/05/18 04:18:48;;;;;;;6.00;1.58;;;7.40;99.90;;;;;;5051856;28;20514;-83
2023/05/18 04:21:14;;;;;;;6.78;1.40;;;7.40;99.90;;;;;;5069623;28;20045;-83
2023/05/18 04:23:40;;;;;;;4.28;1.17;;;7.50;99.90;;;;;;5074180;28;20056;-82
2023/05/18 04:26:07;;;;;;;6.57;1.23;;;7.50;99.90;;;;;;5051818;28;20036;-83
2023/05/18 04:28:33;;;;;;;4.38;1.50;;;7.60;99.90;;;;;;5068503;28;20044;-82
2023/05/18 04:31:00;;;;;;;8.43;1.60;;;7.60;99.90;;;;;;5052507;28;20029;-82
2023/05/18 04:33:27;;;;;;;5.18;1.20;;;7.60;99.90;;;;;;5073660;28;20048;-83
2023/05/18 04:35:54;;;;;;;10.57;2.45;;;7.60;99.90;;;;;;5054609;28;20048;-83
2023/05/18 04:38:22;;;;;;;8.05;1.75;;;7.70;99.90;;;;;;5067337;28;20867;-82
2023/05/18 04:40:49;;;;;;;5.18;1.35;;;7.80;99.90;;;;;;5070740;28;20032;-82
2023/05/18 04:43:19;;;;;;;7.20;2.00;;;7.80;99.90;;;;;;5051271;28;20060;-83
2023/05/18 04:45:45;;;;;;;12.50;2.17;;;7.80;99.90;;;;;;5070134;28;20035;-82
2023/05/18 04:48:13;;;;;;;10.85;1.67;;;7.90;99.90;;;;;;5052538;28;20119;-83
2023/05/18 04:50:39;;;;;;;5.95;1.60;;;7.90;99.90;;;;;;5066734;28;20068;-83
2023/05/18 04:53:06;;;;;;;9.25;1.50;;;8.00;99.90;;;;;;5045777;28;20130;-83
2023/05/18 04:55:32;;;;;;;7.18;1.45;;;8.10;99.90;;;;;;5064576;28;20044;-82
2023/05/18 04:58:00;;;;;;;5.68;1.65;;;8.10;99.90;;;;;;5047232;28;20051;-83
2023/05/18 05:00:28;;;;;;;10.30;1.55;;;8.20;99.90;;;;;;5046304;28;20069;-83
2023/05/18 05:02:55;;;;;;;9.60;2.25;;;8.20;99.90;;;;;;5066732;28;20514;-83
2023/05/18 05:05:21;;;;;;;6.47;1.08;;;8.30;99.90;;;;;;5071306;28;20555;-82
2023/05/18 05:07:52;;;;;;;11.15;1.75;;;8.20;99.90;;;;;;5068516;28;20075;-83
2023/05/18 05:10:19;;;;;;;8.40;1.77;;;8.20;99.90;;;;;;5046348;28;20048;-83
2023/05/18 05:12:45;;;;;;;8.40;1.67;;;8.40;99.90;;;;;;5045119;28;20043;-83
2023/05/18 05:15:11;;;;;;;8.23;1.40;;;8.40;99.90;;;;;;5048436;28;20120;-83
2023/05/18 05:17:36;;;;;;;5.25;0.85;;;8.30;99.90;;;;;;5043140;28;20068;-83
2023/05/18 05:20:02;;;;;;;7.18;1.17;;;8.40;99.90;;;;;;5051140;28;20040;-82
2023/05/18 05:22:28;;;;;;;9.00;1.85;;;8.40;99.90;;;;;;5053318;28;20064;-83
2023/05/18 05:24:54;;;;;;;10.88;1.38;;;8.50;99.90;;;;;;5049094;28;20037;-83
2023/05/18 05:27:19;;;;;;;8.07;1.88;;;8.60;99.90;;;;;;5068133;28;20028;-83
2023/05/18 05:29:46;;;;;;;7.63;1.45;;;8.60;99.90;;;;;;5065246;28;20128;-84
2023/05/18 05:32:12;;;;;;;8.88;1.15;;;8.70;99.90;;;;;;5045546;28;20036;-83
2023/05/18 05:34:38;;;;;;;8.65;1.67;;;8.70;99.90;;;;;;5050873;28;20250;-82
2023/05/18 05:37:04;;;;;;;8.35;1.15;;;8.80;99.90;;;;;;5045745;28;20051;-81
2023/05/18 05:39:29;;;;;;;11.77;1.63;;;8.80;99.90;;;;;;5046400;28;20033;-81
2023/05/18 05:41:55;;;;;;;7.18;1.90;;;8.90;99.90;;;;;;5063454;28;20079;-81
2023/05/18 05:44:21;;;;;;;8.70;2.00;;;8.80;99.90;;;;;;5046110;28;21516;-81
2023/05/18 05:46:47;;;;;;;5.63;1.52;;;8.80;99.90;;;;;;5065741;28;20041;-82
2023/05/18 05:49:12;;;;;;;8.43;1.10;;;8.80;99.90;;;;;;5064008;28;20041;-82
2023/05/18 05:51:38;;;;;;;9.35;1.50;;;8.80;99.90;;;;;;5063585;28;20037;-82
2023/05/18 05:54:03;;;;;;;11.45;1.30;;;8.90;99.90;;;;;;5047511;28;20044;-82
2023/05/18 05:56:29;;;;;;;9.18;1.55;;;9.20;99.90;;;;;;5065973;28;20422;-81
2023/05/18 05:58:54;;;;;;;4.63;1.33;;;8.90;99.90;;;;;;5066897;28;20167;-83
2023/05/18 06:01:20;;;;;;;8.10;1.48;;;8.90;99.90;;;;;;5050789;28;20131;-81
2023/05/18 06:03:47;;;;;;;10.85;1.30;;;9.00;99.90;;;;;;5067086;28;20121;-82
2023/05/18 06:06:13;;;;;;;9.30;1.80;;;8.90;99.90;;;;;;5067576;28;20060;-82
2023/05/18 06:08:38;;;;;;;6.60;0.95;;;9.10;99.90;;;;;;5064158;28;20036;-82
2023/05/18 06:11:04;;;;;;;8.57;1.20;;;9.00;99.90;;;;;;5068235;28;20036;-81
2023/05/18 06:13:30;;;;;;;10.25;2.00;;;9.00;99.90;;;;;;5065284;28;20051;-83
2023/05/18 06:15:57;;;;;;;10.70;1.73;;;9.00;99.90;;;;;;5069838;28;20049;-81
2023/05/18 06:18:23;;;;;;;6.32;2.00;;;9.00;99.90;;;;;;5066764;28;20086;-82
2023/05/18 06:20:48;;;;;;;11.93;1.67;;;9.00;99.90;;;;;;5067011;28;20040;-81
2023/05/18 06:23:14;;;;;;;7.70;1.20;;;9.00;99.90;;;;;;5068794;28;20101;-82
2023/05/18 06:25:40;;;;;;;7.28;1.27;;;9.00;99.90;;;;;;5066874;28;20056;-82
2023/05/18 06:28:05;;;;;;;10.75;1.77;;;9.10;99.90;;;;;;5047710;28;20048;-82
2023/05/18 06:30:31;;;;;;;6.85;1.20;;;9.20;99.90;;;;;;5050016;28;20044;-83
2023/05/18 06:32:57;;;;;;;6.68;1.65;;;9.20;99.90;;;;;;5067874;28;20036;-81
2023/05/18 06:35:25;;;;;;;10.43;1.15;;;9.40;99.90;;;;;;5072618;28;20110;-83
2023/05/18 06:37:51;;;;;;;10.02;1.48;;;9.50;99.90;;;;;;5067403;28;20570;-80
2023/05/18 06:40:16;;;;;;;11.32;1.23;;;9.50;99.90;;;;;;5046796;28;20041;-83
2023/05/18 06:42:42;;;;;;;8.15;1.70;;;9.60;99.90;;;;;;5047391;28;20040;-81
2023/05/18 06:45:08;;;;;;;7.03;0.85;;;9.80;99.90;;;;;;5067421;28;20043;-83
2023/05/18 06:47:33;;;;;;;5.70;1.10;;;9.90;99.90;;;;;;5044910;28;20033;-81
2023/05/18 06:49:59;;;;;;;7.82;1.15;;;10.00;99.90;;;;;;5046466;28;20045;-82
2023/05/18 06:52:24;;;;;;;7.88;1.42;;;10.00;99.90;;;;;;5042173;28;20040;-81
2023/05/18 06:54:50;;;;;;;8.73;1.77;;;10.10;99.90;;;;;;5043838;28;20055;-80
2023/05/18 06:57:16;;;;;;;5.20;0.93;;;10.00;99.90;;;;;;5059968;28;20127;-80
2023/05/18 06:59:42;;;;;;;7.43;1.58;;;10.20;99.90;;;;;;5049373;28;20356;-81
2023/05/18 07:02:07;;;;;;;10.52;1.80;;;10.30;99.90;;;;;;5062855;28;20121;-80
2023/05/18 07:04:33;;;;;;;4.80;0.98;;;10.50;99.90;;;;;;5042552;28;20032;-80
2023/05/18 07:06:59;;;;;;;6.55;1.42;;;10.60;99.90;;;;;;5062361;28;20098;-80
2023/05/18 07:09:24;;;;;;;4.45;0.98;;;10.60;99.90;;;;;;5045791;28;20135;-80
2023/05/18 07:11:50;;;;;;;6.45;1.40;;;10.40;99.90;;;;;;5060105;28;20687;-80
2023/05/18 07:14:15;;;;;;;8.98;1.13;;;10.30;99.90;;;;;;5046549;28;20167;-82
2023/05/18 07:16:42;;;;;;;7.78;1.50;;;10.30;99.90;;;;;;5062429;28;20119;-79
2023/05/18 07:19:08;;;;;;;9.02;1.50;;;10.40;99.90;;;;;;5048995;28;20036;-81
2023/05/18 07:21:34;;;;;;;5.72;0.93;;;10.60;99.90;;;;;;5063793;28;20082;-80
2023/05/18 07:24:00;;;;;;;4.25;1.63;;;10.60;99.90;;;;;;5045723;28;20051;-80
2023/05/18 07:26:25;;;;;;;6.70;1.30;;;10.60;99.90;;;;;;5064199;28;20072;-81
2023/05/18 07:28:51;;;;;;;5.75;1.67;;;10.70;99.90;;;;;;5070744;28;20399;-82
2023/05/18 07:31:20;;;;;;;11.93;1.85;;;10.80;99.90;;;;;;5070369;28;20108;-82
2023/05/18 07:33:46;;;;;;;6.82;1.05;;;10.90;99.90;;;;;;5054551;28;20242;-83
2023/05/18 07:36:12;;;;;;;7.00;1.65;;;10.80;99.90;;;;;;5047257;28;20060;-83
2023/05/18 07:38:38;;;;;;;10.52;1.75;;;10.90;99.90;;;;;;5069430;28;20100;-82
2023/05/18 07:41:04;;;;;;;5.93;1.40;;;11.00;99.90;;;;;;5065183;28;20056;-83
2023/05/18 07:43:30;;;;;;;6.57;1.83;;;11.10;99.90;;;;;;5052930;28;20041;-81
2023/05/18 07:46:04;;;;;;;7.13;1.38;;;11.20;99.90;;;;;;5051031;28;20093;-83
2023/05/18 07:48:35;;;;;;;9.88;1.45;;;11.10;99.90;;;;;;5050439;28;20487;-84
2023/05/18 07:51:36;;;;;;;7.57;1.13;;;11.00;99.90;;;;;;5051231;28;20025;-81
2023/05/18 07:54:02;;;;;;;8.68;1.20;;;11.20;99.90;;;;;;5065328;28;20135;-82
2023/05/18 07:56:28;;;;;;;5.28;1.40;;;11.50;99.90;;;;;;5047955;28;21006;-84
2023/05/18 07:58:53;;;;;;;5.32;1.63;;;11.40;99.90;;;;;;5043806;28;20072;-83
2023/05/18 08:01:20;;;;;;;6.43;1.48;;;11.40;99.90;;;;;;5070691;28;20104;-83
2023/05/18 08:03:46;;;;;;;5.55;1.08;;;11.50;99.90;;;;;;5047525;28;20579;-85
2023/05/18 08:06:12;;;;;;;7.40;2.17;;;11.50;99.90;;;;;;5054795;28;20071;-83
2023/05/18 08:08:37;;;;;;;4.93;0.90;;;11.70;99.90;;;;;;5066282;28;20044;-81
2023/05/18 08:11:07;;;;;;;14.00;1.15;;;12.00;99.90;;;;;;5046014;28;20673;-84
2023/05/18 08:13:35;;;;;;;8.18;1.40;;;12.50;99.90;;;;;;5064575;28;20044;-81
2023/05/18 08:16:00;;;;;;;7.38;0.93;;;12.50;99.90;;;;;;5070280;28;20844;-84
2023/05/18 08:18:26;;;;;;;6.95;1.58;;;12.30;99.90;;;;;;5065267;28;20036;-83
2023/05/18 08:20:52;;;;;;;5.30;1.30;;;12.20;99.90;;;;;;5068549;28;20087;-85
2023/05/18 08:23:18;;;;;;;8.05;1.52;;;11.90;99.90;;;;;;5051762;28;20097;-84
2023/05/18 08:25:45;;;;;;;8.73;1.38;;;12.10;99.90;;;;;;5069132;28;20365;-84
2023/05/18 08:28:11;;;;;;;6.88;0.98;;;12.40;99.90;;;;;;5037202;28;20116;-84
2023/05/18 08:30:37;;;;;;;6.32;0.93;;;12.80;99.90;;;;;;5057601;28;20064;-84
2023/05/18 08:33:02;;;;;;;6.43;1.50;;;13.20;99.90;;;;;;5052694;28;20033;-84
2023/05/18 08:35:28;;;;;;;4.85;1.17;;;13.50;99.90;;;;;;5042378;28;20474;-82
2023/05/18 08:37:54;;;;;;;5.35;1.38;;;13.50;99.90;;;;;;5054656;28;20061;-82
2023/05/18 08:40:20;;;;;;;3.83;1.00;;;13.30;99.90;;;;;;5065812;28;20875;-81
2023/05/18 08:42:51;;;;;;;4.47;1.25;;;13.00;99.90;;;;;;5067998;28;20131;-82
2023/05/18 08:45:41;;;;;;;5.07;1.65;;;12.80;99.90;;;;;;5047479;28;20118;-83
2023/05/18 08:48:10;;;;;;;7.45;1.20;;;13.00;99.90;;;;;;5046600;28;20049;-81
2023/05/18 08:50:39;;;;;;;5.25;1.27;;;13.10;99.90;;;;;;5064833;28;20060;-82
2023/05/18 08:53:05;;;;;;;8.80;1.95;;;13.20;99.90;;;;;;5045716;28;20514;-84
2023/05/18 08:55:35;;;;;;;5.32;1.25;;;13.20;99.90;;;;;;5048979;28;20040;-84
2023/05/18 08:58:03;;;;;;;5.47;1.40;;;13.00;99.90;;;;;;5056639;28;20048;-83
2023/05/18 09:00:29;;;;;;;8.98;1.98;;;13.20;99.90;;;;;;5046808;28;20037;-84
2023/05/18 09:02:55;;;;;;;7.38;1.13;;;13.10;99.90;;;;;;5036383;28;20040;-82
2023/05/18 09:05:22;;;;;;;6.32;1.60;;;13.10;99.90;;;;;;5048640;28;20093;-83
2023/05/18 09:07:50;;;;;;;6.30;1.58;;;13.10;99.90;;;;;;5069559;28;20037;-85
2023/05/18 09:10:17;;;;;;;7.60;1.58;;;13.30;99.90;;;;;;5066488;28;20392;-84
2023/05/18 09:12:45;;;;;;;8.80;1.52;;;13.60;99.90;;;;;;5051895;28;20100;-82
2023/05/18 09:15:13;;;;;;;9.57;1.55;;;13.50;99.90;;;;;;5049603;28;20051;-84
2023/05/18 09:17:39;;;;;;;7.53;1.73;;;13.70;99.90;;;;;;5074274;28;20032;-82
2023/05/18 09:20:06;;;;;;;7.15;1.00;;;13.50;99.90;;;;;;5068652;28;20040;-83
2023/05/18 09:22:35;;;;;;;5.85;1.92;;;13.50;99.90;;;;;;5065625;28;20040;-83
2023/05/18 09:25:07;;;;;;;7.80;2.33;;;13.40;99.20;;;;;;5053896;28;20064;-84
2023/05/18 09:27:33;;;;;;;3.28;1.35;;;13.50;99.80;;;;;;5036938;28;20049;-84
2023/05/18 09:29:58;;;;;;;7.20;1.00;;;13.60;99.80;;;;;;5064721;28;20395;-83
2023/05/18 09:32:25;;;;;;;6.07;1.08;;;13.80;99.90;;;;;;5041951;28;20037;-84
2023/05/18 09:34:51;;;;;;;7.43;1.00;;;14.30;99.90;;;;;;5065890;28;20116;-84
2023/05/18 09:37:19;;;;;;;6.78;1.63;;;14.10;99.90;;;;;;5032963;28;20033;-84
2023/05/18 09:40:03;;;;;;;8.85;1.50;;;14.10;99.80;;;;;;5045255;28;20078;-84
2023/05/18 09:42:45;;;;;;;4.72;0.90;;;14.30;99.90;;;;;;5065429;28;20109;-84
2023/05/18 09:45:25;;;;;;;6.60;1.10;;;14.50;99.90;;;;;;5045772;28;20146;-84
2023/05/18 09:47:57;;;;;;;5.13;1.17;;;14.90;99.90;;;;;;5044794;28;20112;-85
2023/05/18 09:50:23;;;;;;;6.35;1.10;;;15.00;99.90;;;;;;5031061;28;20861;-85
2023/05/18 09:52:49;;;;;;;3.63;1.05;;;15.20;99.90;;;;;;5041916;28;20053;-85
2023/05/18 09:55:16;;;;;;;5.63;1.05;;;14.90;99.90;;;;;;5065555;28;20364;-82
2023/05/18 09:58:02;;;;;;;6.75;1.40;;;14.90;99.50;;;;;;5043907;28;20132;-87
2023/05/18 10:00:28;;;;;;;6.03;1.30;;;14.80;99.70;;;;;;5022730;28;20045;-86
2023/05/18 10:02:55;;;;;;;7.82;1.48;;;14.70;99.50;;;;;;5062054;28;20523;-85
2023/05/18 10:05:39;;;;;;;6.93;1.75;;;14.40;99.30;;;;;;5040266;28;20691;-86
2023/05/18 10:08:06;;;;;;;6.10;1.20;;;14.40;99.80;;;;;;5025501;28;20575;-84
2023/05/18 10:10:31;;;;;;;5.32;1.27;;;14.30;99.90;;;;;;5045607;28;20060;-84
2023/05/18 10:12:57;;;;;;;5.47;1.63;;;14.30;99.90;;;;;;5033893;28;20503;-84
2023/05/18 10:15:23;;;;;;;7.70;1.02;;;14.40;99.60;;;;;;5065941;28;20119;-84
2023/05/18 10:17:53;;;;;;;4.10;0.85;;;14.50;99.80;;;;;;5040208;28;20053;-84
2023/05/18 10:20:25;;;;;;;5.95;1.48;;;14.70;99.90;;;;;;5060899;28;20687;-85
2023/05/18 10:23:04;;;;;;;5.70;1.42;;;14.70;99.80;;;;;;5049997;28;20663;-86
2023/05/18 10:25:30;;;;;;;4.35;0.82;;;14.90;99.90;;;;;;5035152;28;20037;-84
2023/05/18 10:28:08;;;;;;;5.47;1.30;;;14.70;99.80;;;;;;5046317;28;20068;-85
2023/05/18 10:31:03;;;;;;;5.85;1.08;;;14.80;99.70;;;;;;5048217;28;20071;-85
2023/05/18 10:33:36;;;;;;;4.80;1.33;;;15.20;98.50;;;;;;5064569;28;20064;-84
2023/05/18 10:36:11;;;;;;;3.88;1.08;;;14.60;99.30;;;;;;5030279;28;20041;-86
2023/05/18 10:38:46;;;;;;;7.72;1.50;;;14.60;99.90;;;;;;5046235;28;20075;-85
2023/05/18 10:41:21;;;;;;;5.45;1.60;;;14.90;99.90;;;;;;5043385;28;20055;-86
2023/05/18 10:44:43;;;;;;;6.28;1.38;;;15.10;99.80;;;;;;5026553;28;20059;-87
2023/05/18 10:47:59;;;;;;;7.40;1.63;;;15.20;99.90;;;;;;5038634;28;20384;-87
2023/05/18 10:54:47;;;;;;;7.82;2.15;;;15.50;99.90;;;;;;4953286;28;20166;-86
2023/05/18 10:57:19;;;;;;;7.28;1.30;;;15.00;99.80;;;;;;5008625;28;20049;-84
2023/05/18 10:59:46;;;;;;;4.30;1.00;;;15.60;99.30;;;;;;5054503;28;20045;-85
2023/05/18 11:02:17;;;;;;;5.60;1.60;;;15.50;99.30;;;;;;5051898;28;20033;-86
2023/05/18 11:04:51;;;;;;;7.00;1.23;;;15.60;98.90;;;;;;5047829;28;20037;-84
2023/05/18 11:07:17;;;;;;;6.00;1.27;;;15.60;99.40;;;;;;5047975;28;20174;-85
2023/05/18 11:09:55;;;;;;;5.18;1.30;;;15.40;98.70;;;;;;5049667;28;20656;-85
2023/05/18 11:12:25;;;;;;;4.10;1.00;;;15.40;99.90;;;;;;5068232;28;20511;-86
2023/05/18 11:14:59;;;;;;;5.75;1.65;;;15.30;99.20;;;;;;5035864;28;20039;-85
2023/05/18 11:17:28;;;;;;;10.82;1.58;;;15.40;98.40;;;;;;5064907;28;20032;-85
2023/05/18 11:20:10;;;;;;;7.72;1.65;;;15.40;99.10;;;;;;5066673;28;20024;-84
2023/05/18 11:22:58;;;;;;;7.28;1.80;;;15.50;99.90;;;;;;5051526;28;20041;-83
2023/05/18 11:25:24;;;;;;;3.88;1.02;;;15.60;99.90;;;;;;5054399;28;20044;-85
2023/05/18 11:27:51;;;;;;;5.88;1.65;;;15.60;99.20;;;;;;5070346;28;20036;-82
2023/05/18 11:30:48;;;;;;;5.50;1.08;;;15.40;98.70;;;;;;5070297;28;20052;-84
2023/05/18 11:33:35;;;;;;;7.75;1.40;;;15.20;99.90;;;;;;5064752;28;20065;-85
2023/05/18 11:36:33;;;;;;;5.22;1.17;;;15.50;98.80;;;;;;5044393;28;20433;-86
2023/05/18 11:39:05;;;;;;;8.48;1.75;;;15.70;99.50;;;;;;5072302;28;20033;-86
2023/05/18 11:41:48;;;;;;;6.35;1.60;;;15.90;99.90;;;;;;5032104;28;20033;-87
2023/05/18 11:44:16;;;;;;;7.13;1.20;;;15.90;99.90;;;;;;5052537;28;20064;-85
2023/05/18 11:47:00;;;;;;;3.35;1.55;;;15.70;99.90;;;;;;5058201;28;20033;-85
2023/05/18 11:49:31;;;;;;;5.88;1.20;;;15.70;99.20;;;;;;5050440;28;20047;-85
2023/05/18 11:52:18;;;;;;;7.28;1.35;;;15.60;99.40;;;;;;5037678;28;20038;-83
2023/05/18 11:55:05;;;;;;;9.85;1.70;;;15.60;99.30;;;;;;5069898;28;20040;-83
2023/05/18 11:57:34;;;;;;;6.07;1.38;;;15.50;99.40;;;;;;5046962;28;20037;-82
2023/05/18 12:00:06;;;;;;;5.07;1.40;;;15.30;99.60;;;;;;5065505;28;20032;-82
2023/05/18 12:02:32;;;;;;;10.20;2.08;;;15.40;99.80;;;;;;5037758;28;20120;-83
2023/05/18 12:05:00;;;;;;;8.23;1.75;;;15.40;99.20;;;;;;5055206;28;20670;-83
2023/05/18 12:07:27;;;;;;;7.57;1.30;;;15.30;98.50;;;;;;5064866;28;20052;-83
2023/05/18 12:09:58;;;;;;;4.18;1.40;;;15.50;99.30;;;;;;5067256;28;20040;-86
2023/05/18 12:12:24;;;;;;;6.72;1.35;;;15.40;99.90;;;;;;5054448;28;20503;-83
2023/05/18 12:14:58;;;;;;;7.93;1.50;;;15.50;99.40;;;;;;5052082;28;20032;-84
2023/05/18 12:17:44;;;;;;;5.15;1.42;;;15.50;99.50;;;;;;5063315;28;20043;-85
2023/05/18 12:20:14;;;;;;;5.30;2.03;;;15.70;99.20;;;;;;5064354;28;20678;-86
2023/05/18 12:22:50;;;;;;;5.40;1.27;;;15.70;99.10;;;;;;5048301;28;20335;-84
2023/05/18 12:25:23;;;;;;;8.40;1.90;;;15.60;99.20;;;;;;5051415;28;20048;-84
2023/05/18 12:27:51;;;;;;;7.13;1.60;;;15.60;99.50;;;;;;5018475;28;20203;-86
2023/05/18 12:30:42;;;;;;;3.67;1.50;;;15.50;99.40;;;;;;5051806;28;20069;-86
2023/05/18 12:33:50;;;;;;;4.07;1.25;;;15.70;99.90;;;;;;5058408;28;20048;-86
2023/05/18 12:36:29;;;;;;;4.15;1.40;;;15.80;99.10;;;;;;5033101;28;20118;-87
2023/05/18 12:39:28;;;;;;;5.60;1.17;;;16.40;99.20;;;;;;5063544;28;20483;-87
2023/05/18 12:42:37;;;;;;;6.68;1.38;;;16.00;99.70;;;;;;5032626;28;20411;-86
2023/05/18 12:45:59;;;;;;;5.85;1.52;;;15.80;98.60;;;;;;5012267;28;20032;-86
2023/05/18 12:48:45;;;;;;;6.38;1.50;;;15.60;98.00;;;;;;5025423;28;20072;-90
2023/05/18 12:52:09;;;;;;;8.38;1.83;;;15.70;98.30;;;;;;5039884;28;20044;-88
2023/05/18 12:55:03;;;;;;;5.95;1.60;;;15.80;98.50;;;;;;5048834;28;20588;-85
2023/05/18 12:58:31;;;;;;;8.50;2.42;;;15.90;98.90;;;;;;5063531;28;20112;-87
2023/05/18 13:01:55;;;;;;;7.05;1.83;;;15.90;98.70;;;;;;4910922;29;20249;-86
2023/05/18 13:04:21;;;;;;;8.45;1.52;;;16.10;99.20;;;;;;4900101;28;20628;-90
2023/05/18 13:06:47;;;;;;;6.68;1.80;;;16.10;99.20;;;;;;4965453;28;20038;-88
2023/05/18 13:09:18;;;;;;;6.47;1.48;;;16.50;98.80;;;;;;4971782;28;20505;-89
2023/05/18 13:11:58;;;;;;;6.15;1.60;;;16.20;99.20;;;;;;5022202;28;20059;-89